createdAt,value
2022-08-30T00:00:05.174Z,21.29
2022-08-30T00:02:34.124Z,21.28
2022-08-30T00:05:02.090Z,21.23
2022-08-30T00:07:29.616Z,21.23
2022-08-30T00:09:57.203Z,21.19
2022-08-30T00:12:25.580Z,21.17
2022-08-30T00:14:53.040Z,21.14
2022-08-30T00:17:20.615Z,21.09
2022-08-30T00:19:48.337Z,21.04
2022-08-30T00:22:15.695Z,20.95
2022-08-30T00:24:43.656Z,20.90
2022-08-30T00:27:11.031Z,20.89
2022-08-30T00:29:38.440Z,20.89
2022-08-30T00:32:06.954Z,20.93
2022-08-30T00:34:34.604Z,21.02
2022-08-30T00:37:02.309Z,20.91
2022-08-30T00:39:29.730Z,20.87
2022-08-30T00:41:57.021Z,20.84
2022-08-30T00:44:24.512Z,20.79
2022-08-30T00:46:51.812Z,20.76
2022-08-30T00:49:19.221Z,20.72
2022-08-30T00:51:46.685Z,20.77
2022-08-30T00:54:14.533Z,20.76
2022-08-30T00:56:41.959Z,20.75
2022-08-30T00:59:10.465Z,20.74
2022-08-30T01:01:38.237Z,20.72
2022-08-30T01:04:09.011Z,20.71
2022-08-30T01:06:40.078Z,20.67
2022-08-30T01:09:07.736Z,20.63
2022-08-30T01:11:37.947Z,20.58
2022-08-30T01:14:05.739Z,20.56
2022-08-30T01:16:35.362Z,20.51
2022-08-30T01:19:02.778Z,20.45
2022-08-30T01:21:44.615Z,20.38
2022-08-30T01:24:12.290Z,20.29
2022-08-30T01:26:40.204Z,20.26
2022-08-30T01:29:10.936Z,20.23
2022-08-30T01:31:38.686Z,20.23
2022-08-30T01:34:07.795Z,20.28
2022-08-30T01:36:44.911Z,20.32
2022-08-30T01:39:17.962Z,20.33
2022-08-30T01:41:45.614Z,20.34
2022-08-30T01:44:13.899Z,20.33
2022-08-30T01:46:45.801Z,20.34
2022-08-30T01:49:17.579Z,20.35
2022-08-30T01:51:50.822Z,20.35
2022-08-30T01:54:28.094Z,20.35
2022-08-30T01:57:04.991Z,20.34
2022-08-30T01:59:34.499Z,20.33
2022-08-30T02:02:02.218Z,20.20
2022-08-30T02:04:29.736Z,20.09
2022-08-30T02:06:57.297Z,20.04
2022-08-30T02:09:24.913Z,19.97
2022-08-30T02:11:53.262Z,19.92
2022-08-30T02:14:21.131Z,19.92
2022-08-30T02:16:49.745Z,19.90
2022-08-30T02:19:18.397Z,19.86
2022-08-30T02:21:45.756Z,19.83
2022-08-30T02:24:13.061Z,19.81
2022-08-30T02:26:40.401Z,19.82
2022-08-30T02:29:07.753Z,19.84
2022-08-30T02:31:35.900Z,19.84
2022-08-30T02:34:04.447Z,19.83
2022-08-30T02:36:32.044Z,19.83
2022-08-30T02:38:59.824Z,19.83
2022-08-30T02:41:27.101Z,19.85
2022-08-30T02:43:58.603Z,19.87
2022-08-30T02:46:33.315Z,19.89
2022-08-30T02:49:13.206Z,20.01
2022-08-30T02:51:49.968Z,19.97
2022-08-30T02:54:20.224Z,19.97
2022-08-30T02:56:49.100Z,19.99
2022-08-30T02:59:17.366Z,20.02
2022-08-30T03:01:44.940Z,20.04
2022-08-30T03:04:12.324Z,20.07
2022-08-30T03:06:40.108Z,20.11
2022-08-30T03:09:07.888Z,20.12
2022-08-30T03:11:37.758Z,20.17
2022-08-30T03:14:05.445Z,20.24
2022-08-30T03:16:32.960Z,20.33
2022-08-30T03:19:00.402Z,20.43
2022-08-30T03:21:27.755Z,20.57
2022-08-30T03:23:55.137Z,20.71
2022-08-30T03:26:22.388Z,20.86
2022-08-30T03:28:49.837Z,21.22
2022-08-30T03:31:17.290Z,21.63
2022-08-30T03:33:44.727Z,21.99
2022-08-30T03:36:12.718Z,22.45
2022-08-30T03:38:41.138Z,22.64
2022-08-30T03:41:09.183Z,22.61
2022-08-30T03:43:37.488Z,22.77
2022-08-30T03:46:05.860Z,23.12
2022-08-30T03:48:33.332Z,23.60
2022-08-30T03:51:00.641Z,24.37
2022-08-30T03:53:28.249Z,25.18
2022-08-30T03:55:55.657Z,25.93
2022-08-30T03:58:25.448Z,26.60
2022-08-30T04:00:52.914Z,27.10
2022-08-30T04:03:25.885Z,27.52
2022-08-30T04:05:54.828Z,28.12
2022-08-30T04:08:23.246Z,28.52
2022-08-30T04:10:51.197Z,28.94
2022-08-30T04:13:19.088Z,29.02
2022-08-30T04:15:46.466Z,29.64
2022-08-30T04:18:14.041Z,29.69
2022-08-30T04:20:43.621Z,29.81
2022-08-30T04:23:12.613Z,30.20
2022-08-30T04:25:41.481Z,30.40
2022-08-30T04:28:09.716Z,30.71
2022-08-30T04:30:44.609Z,31.13
2022-08-30T04:33:13.172Z,31.48
2022-08-30T04:35:47.680Z,31.88
2022-08-30T04:38:17.549Z,32.24
2022-08-30T04:40:50.684Z,32.32
2022-08-30T04:43:18.414Z,32.32
2022-08-30T04:45:46.439Z,32.42
2022-08-30T04:48:14.100Z,32.67
2022-08-30T04:50:43.468Z,32.87
2022-08-30T04:53:11.059Z,32.90
2022-08-30T04:55:40.293Z,33.07
2022-08-30T04:58:07.910Z,33.34
2022-08-30T05:00:37.795Z,33.64
2022-08-30T05:03:16.243Z,33.83
2022-08-30T05:05:52.418Z,34.13
2022-08-30T05:08:24.623Z,34.44
2022-08-30T05:10:52.932Z,34.85
2022-08-30T05:13:25.941Z,35.13
2022-08-30T05:16:04.759Z,35.44
2022-08-30T05:18:32.671Z,35.62
2022-08-30T05:21:03.931Z,35.97
2022-08-30T05:23:31.782Z,36.08
2022-08-30T05:26:05.522Z,36.09
2022-08-30T05:28:32.862Z,36.01
2022-08-30T05:31:00.586Z,36.13
2022-08-30T05:33:28.541Z,36.35
2022-08-30T05:35:55.989Z,36.49
2022-08-30T05:38:23.525Z,36.61
2022-08-30T05:40:53.773Z,36.64
2022-08-30T05:43:26.773Z,36.78
2022-08-30T05:46:05.533Z,37.03
2022-08-30T05:48:34.272Z,37.14
2022-08-30T05:51:11.720Z,37.02
2022-08-30T05:53:40.188Z,37.11
2022-08-30T05:56:10.448Z,37.82
2022-08-30T05:58:43.086Z,38.49
2022-08-30T06:01:41.045Z,39.05
2022-08-30T06:04:10.802Z,39.28
2022-08-30T06:06:41.097Z,39.39
2022-08-30T06:09:10.249Z,39.61
2022-08-30T06:11:38.673Z,39.77
2022-08-30T06:14:09.581Z,39.81
2022-08-30T06:16:40.488Z,39.82
2022-08-30T06:19:12.215Z,39.79
2022-08-30T06:21:43.723Z,39.70
2022-08-30T06:24:13.097Z,39.66
2022-08-30T06:26:43.542Z,39.34
2022-08-30T06:29:14.260Z,39.01
2022-08-30T06:31:44.949Z,38.15
2022-08-30T06:34:14.926Z,37.13
2022-08-30T06:36:42.770Z,36.04
2022-08-30T06:39:10.856Z,35.11
2022-08-30T06:41:41.125Z,34.30
2022-08-30T06:44:09.186Z,33.73
2022-08-30T06:46:38.357Z,33.16
2022-08-30T06:49:07.050Z,32.81
2022-08-30T06:51:38.005Z,32.39
2022-08-30T06:54:10.918Z,32.10
2022-08-30T06:56:57.769Z,32.02
2022-08-30T06:59:27.223Z,31.94
2022-08-30T07:01:55.873Z,31.53
2022-08-30T07:04:23.563Z,31.23
2022-08-30T07:06:50.932Z,31.07
2022-08-30T07:09:19.537Z,31.02
2022-08-30T07:11:51.266Z,31.30
2022-08-30T07:14:19.055Z,31.73
2022-08-30T07:16:50.909Z,32.06
2022-08-30T07:19:20.905Z,32.25
2022-08-30T07:21:50.877Z,32.33
2022-08-30T07:24:20.320Z,32.44
2022-08-30T07:26:53.721Z,32.40
2022-08-30T07:29:21.526Z,32.31
2022-08-30T07:31:49.783Z,32.15
2022-08-30T07:36:51.352Z,32.32
2022-08-30T07:39:20.945Z,32.19
2022-08-30T07:41:48.921Z,32.19
2022-08-30T07:44:17.079Z,32.38
2022-08-30T07:46:44.888Z,32.66
2022-08-30T07:49:39.617Z,32.87
2022-08-30T07:52:16.273Z,33.01
2022-08-30T07:54:53.192Z,33.13
2022-08-30T07:57:21.035Z,33.33
2022-08-30T07:59:48.428Z,33.43
2022-08-30T08:02:15.908Z,33.58
2022-08-30T08:04:44.019Z,33.74
2022-08-30T08:07:12.063Z,33.88
2022-08-30T08:09:39.590Z,33.93
2022-08-30T08:12:12.823Z,33.90
2022-08-30T08:14:41.546Z,33.73
2022-08-30T08:17:10.705Z,33.46
2022-08-30T08:19:38.582Z,33.31
2022-08-30T08:22:21.941Z,33.25
2022-08-30T08:24:50.183Z,33.43
2022-08-30T08:27:17.673Z,33.53
2022-08-30T08:29:45.033Z,33.65
2022-08-30T08:32:12.464Z,33.87
2022-08-30T08:34:41.534Z,33.94
2022-08-30T08:37:09.184Z,33.92
2022-08-30T08:39:37.174Z,33.89
2022-08-30T08:42:25.493Z,33.79
2022-08-30T08:45:36.285Z,33.87
2022-08-30T08:48:10.550Z,33.88
2022-08-30T08:51:02.786Z,33.86
2022-08-30T08:53:52.476Z,33.95
2022-08-30T08:56:22.067Z,33.91
2022-08-30T08:58:55.114Z,33.90
2022-08-30T09:01:25.843Z,33.88
2022-08-30T09:03:54.069Z,33.81
2022-08-30T09:06:45.065Z,33.84
2022-08-30T09:09:22.368Z,33.98
2022-08-30T09:11:50.281Z,34.12
2022-08-30T09:14:25.418Z,34.23
2022-08-30T09:17:03.299Z,34.38
2022-08-30T09:19:52.955Z,34.50
2022-08-30T09:22:33.923Z,34.53
2022-08-30T09:25:28.091Z,34.48
2022-08-30T09:28:09.769Z,34.55
2022-08-30T09:30:39.821Z,34.50
2022-08-30T09:33:19.523Z,34.49
2022-08-30T09:35:49.369Z,34.40
2022-08-30T09:38:20.633Z,34.49
2022-08-30T09:40:49.922Z,34.63
2022-08-30T09:43:17.382Z,34.74
2022-08-30T09:45:50.547Z,34.71
2022-08-30T09:48:27.902Z,34.84
2022-08-30T09:51:22.834Z,35.01
2022-08-30T09:54:17.480Z,35.10
2022-08-30T09:57:13.311Z,35.02
2022-08-30T10:00:21.967Z,34.71
2022-08-30T10:03:30.066Z,34.47
2022-08-30T10:06:28.915Z,34.64
2022-08-30T10:09:02.245Z,34.77
2022-08-30T10:11:36.588Z,35.02
2022-08-30T10:14:20.783Z,35.10
2022-08-30T10:17:20.054Z,34.93
2022-08-30T10:20:19.022Z,34.65
2022-08-30T10:22:46.774Z,34.63
2022-08-30T10:25:18.789Z,34.63
2022-08-30T10:27:59.238Z,34.69
2022-08-30T10:30:28.214Z,34.66
2022-08-30T10:33:05.016Z,34.44
2022-08-30T10:35:38.974Z,34.35
2022-08-30T10:38:28.295Z,34.43
2022-08-30T10:41:14.121Z,34.77
2022-08-30T10:44:16.635Z,34.76
2022-08-30T10:46:53.486Z,34.69
2022-08-30T10:49:31.621Z,34.70
2022-08-30T10:52:23.344Z,34.74
2022-08-30T10:55:15.010Z,34.84
2022-08-30T10:57:43.707Z,34.93
2022-08-30T11:00:17.476Z,35.04
2022-08-30T11:03:08.402Z,35.10
2022-08-30T11:05:42.834Z,34.97
2022-08-30T11:08:53.073Z,34.95
2022-08-30T11:11:41.733Z,34.98
2022-08-30T11:14:11.680Z,34.95
2022-08-30T11:19:39.149Z,35.19
2022-08-30T11:22:34.389Z,35.14
2022-08-30T11:25:15.804Z,35.04
2022-08-30T11:27:57.068Z,35.23
2022-08-30T11:30:26.598Z,35.26
2022-08-30T11:33:14.621Z,35.30
2022-08-30T11:35:52.588Z,35.44
2022-08-30T11:38:26.110Z,35.66
2022-08-30T11:40:56.705Z,35.86
2022-08-30T11:43:37.234Z,35.92
2022-08-30T11:46:15.140Z,35.80
2022-08-30T11:49:05.490Z,35.72
2022-08-30T11:52:08.397Z,35.68
2022-08-30T11:55:02.051Z,35.70
2022-08-30T11:57:33.478Z,35.63
2022-08-30T12:00:11.559Z,35.59
2022-08-30T12:02:55.702Z,35.56
2022-08-30T12:05:41.056Z,35.54
2022-08-30T12:08:14.026Z,35.69
2022-08-30T12:10:45.781Z,35.81
2022-08-30T12:13:39.958Z,35.93
2022-08-30T12:16:23.422Z,36.00
2022-08-30T12:19:01.028Z,36.00
2022-08-30T12:21:31.230Z,36.07
2022-08-30T12:24:17.499Z,36.13
2022-08-30T12:26:47.672Z,36.18
2022-08-30T12:29:27.330Z,36.22
2022-08-30T12:32:00.255Z,36.13
2022-08-30T12:34:50.352Z,36.09
2022-08-30T12:37:31.122Z,36.05
2022-08-30T12:40:15.722Z,35.97
2022-08-30T12:43:05.844Z,35.79
2022-08-30T12:45:45.627Z,35.73
2022-08-30T12:48:20.860Z,35.76
2022-08-30T12:50:51.976Z,35.59
2022-08-30T12:53:38.208Z,35.49
2022-08-30T12:56:10.927Z,35.28
2022-08-30T12:58:47.520Z,35.34
2022-08-30T13:01:28.503Z,35.59
2022-08-30T13:04:11.604Z,35.66
2022-08-30T13:06:53.747Z,35.55
2022-08-30T13:09:34.247Z,35.47
2022-08-30T13:12:10.910Z,35.53
2022-08-30T13:14:45.292Z,35.55
2022-08-30T13:17:19.144Z,35.60
2022-08-30T13:19:59.204Z,35.57
2022-08-30T13:22:27.006Z,35.52
2022-08-30T13:24:54.729Z,35.40
2022-08-30T13:27:22.358Z,35.28
2022-08-30T13:29:49.970Z,35.20
2022-08-30T13:32:17.764Z,35.13
2022-08-30T13:35:07.824Z,35.09
2022-08-30T13:37:51.986Z,35.32
2022-08-30T13:40:23.042Z,35.53
2022-08-30T13:42:51.103Z,35.66
2022-08-30T13:48:13.086Z,35.59
2022-08-30T13:50:41.299Z,35.54
2022-08-30T13:53:10.067Z,35.46
2022-08-30T13:55:39.197Z,35.33
2022-08-30T13:58:08.669Z,35.19
2022-08-30T14:00:38.256Z,35.09
2022-08-30T14:03:06.216Z,35.04
2022-08-30T14:06:09.947Z,34.96
2022-08-30T14:08:49.803Z,34.88
2022-08-30T14:11:20.818Z,34.88
2022-08-30T14:16:41.920Z,35.06
2022-08-30T14:19:12.299Z,34.93
2022-08-30T14:21:39.891Z,34.85
2022-08-30T14:24:07.405Z,34.87
2022-08-30T14:26:45.757Z,34.80
2022-08-30T14:29:16.495Z,34.78
2022-08-30T14:31:45.145Z,34.73
2022-08-30T14:34:15.636Z,34.53
2022-08-30T14:36:47.206Z,34.30
2022-08-30T14:39:18.791Z,34.05
2022-08-30T14:41:50.958Z,33.90
2022-08-30T14:44:19.808Z,33.76
2022-08-30T14:46:51.008Z,33.71
2022-08-30T14:49:19.465Z,33.64
2022-08-30T14:51:48.668Z,33.67
2022-08-30T14:54:21.489Z,33.67
2022-08-30T14:56:49.397Z,33.67
2022-08-30T14:59:18.685Z,33.63
2022-08-30T15:01:51.071Z,33.56
2022-08-30T15:04:19.483Z,33.44
2022-08-30T15:06:51.389Z,33.36
2022-08-30T15:09:23.315Z,33.26
2022-08-30T15:11:52.840Z,33.09
2022-08-30T15:14:23.805Z,33.01
2022-08-30T15:16:53.962Z,32.82
2022-08-30T15:19:23.421Z,32.70
2022-08-30T15:21:51.663Z,32.69
2022-08-30T15:24:24.808Z,32.65
2022-08-30T15:26:57.802Z,32.67
2022-08-30T15:29:31.569Z,32.70
2022-08-30T15:32:00.418Z,32.77
2022-08-30T15:34:29.145Z,32.72
2022-08-30T15:36:57.677Z,32.61
2022-08-30T15:39:25.127Z,32.56
2022-08-30T15:42:00.608Z,32.64
2022-08-30T15:44:31.912Z,32.56
2022-08-30T15:46:59.951Z,32.46
2022-08-30T15:49:27.766Z,32.33
2022-08-30T15:51:55.209Z,32.22
2022-08-30T15:54:24.102Z,32.21
2022-08-30T15:56:59.090Z,32.22
2022-08-30T15:59:28.497Z,32.22
2022-08-30T16:01:56.277Z,32.23
2022-08-30T16:04:25.718Z,32.32
2022-08-30T16:06:53.273Z,32.39
2022-08-30T16:09:22.254Z,32.38
2022-08-30T16:11:49.767Z,32.26
2022-08-30T16:14:18.069Z,32.10
2022-08-30T16:16:46.558Z,32.06
2022-08-30T16:19:14.133Z,32.03
2022-08-30T16:21:42.841Z,31.95
2022-08-30T16:24:13.632Z,32.02
2022-08-30T16:26:43.050Z,32.03
2022-08-30T16:29:12.654Z,31.94
2022-08-30T16:31:44.380Z,31.63
2022-08-30T16:34:17.327Z,31.36
2022-08-30T16:36:45.582Z,31.13
2022-08-30T16:39:13.598Z,30.98
2022-08-30T16:41:42.691Z,30.81
2022-08-30T16:44:12.018Z,30.64
2022-08-30T16:46:41.302Z,30.48
2022-08-30T16:49:10.496Z,30.36
2022-08-30T16:51:38.586Z,30.30
2022-08-30T16:54:08.058Z,30.23
2022-08-30T16:56:37.523Z,30.16
2022-08-30T16:59:10.840Z,30.12
2022-08-30T17:01:39.614Z,30.05
2022-08-30T17:04:08.285Z,30.03
2022-08-30T17:06:36.702Z,30.01
2022-08-30T17:09:06.048Z,29.91
2022-08-30T17:11:34.797Z,29.75
2022-08-30T17:14:02.663Z,29.54
2022-08-30T17:16:30.390Z,29.33
2022-08-30T17:19:05.038Z,29.19
2022-08-30T17:21:33.351Z,29.14
2022-08-30T17:24:02.322Z,29.13
2022-08-30T17:26:32.173Z,29.18
2022-08-30T17:28:59.677Z,29.18
2022-08-30T17:31:30.820Z,29.19
2022-08-30T17:34:04.244Z,29.20
2022-08-30T17:36:35.234Z,29.18
2022-08-30T17:39:11.395Z,29.13
2022-08-30T17:41:45.127Z,29.12
2022-08-30T17:44:19.728Z,29.09
2022-08-30T17:46:48.007Z,29.11
2022-08-30T17:49:15.495Z,29.08
2022-08-30T17:51:44.725Z,29.06
2022-08-30T17:54:13.077Z,29.03
2022-08-30T17:56:41.155Z,29.05
2022-08-30T17:59:10.984Z,29.04
2022-08-30T18:01:39.168Z,29.01
2022-08-30T18:04:08.104Z,28.97
2022-08-30T18:06:36.150Z,28.93
2022-08-30T18:09:07.421Z,28.88
2022-08-30T18:11:37.753Z,28.86
2022-08-30T18:14:06.065Z,28.83
2022-08-30T18:16:35.797Z,28.78
2022-08-30T18:19:06.054Z,28.74
2022-08-30T18:21:37.856Z,28.68
2022-08-30T18:24:06.043Z,28.63
2022-08-30T18:26:34.174Z,28.55
2022-08-30T18:29:02.038Z,28.49
2022-08-30T18:31:29.956Z,28.43
2022-08-30T18:34:00.289Z,28.40
2022-08-30T18:36:28.538Z,28.37
2022-08-30T18:38:55.982Z,28.34
2022-08-30T18:41:25.924Z,28.30
2022-08-30T18:44:10.982Z,28.26
2022-08-30T18:46:56.477Z,28.21
2022-08-30T18:49:28.180Z,28.17
2022-08-30T18:51:55.618Z,28.13
2022-08-30T18:54:23.524Z,28.09
2022-08-30T18:56:50.926Z,28.06
2022-08-30T18:59:19.698Z,28.04
2022-08-30T19:01:47.244Z,28.02
2022-08-30T19:07:07.265Z,27.90
2022-08-30T19:09:35.394Z,27.87
2022-08-30T19:12:09.670Z,27.83
2022-08-30T19:14:39.789Z,27.76
2022-08-30T19:17:14.705Z,27.70
2022-08-30T19:19:47.381Z,27.71
2022-08-30T19:22:17.788Z,27.70
2022-08-30T19:24:47.420Z,27.67
2022-08-30T19:27:14.729Z,27.67
2022-08-30T19:29:53.786Z,27.63
2022-08-30T19:32:22.485Z,27.58
2022-08-30T19:34:50.166Z,27.55
2022-08-30T19:37:18.701Z,27.51
2022-08-30T19:42:36.348Z,27.36
2022-08-30T19:45:08.080Z,27.32
2022-08-30T19:47:36.376Z,27.30
2022-08-30T19:50:05.483Z,27.26
2022-08-30T19:52:37.742Z,27.24
2022-08-30T19:55:10.756Z,27.19
2022-08-30T19:57:38.196Z,27.11
2022-08-30T20:00:11.167Z,27.04
2022-08-30T20:02:40.491Z,27.00
2022-08-30T20:05:10.281Z,26.98
2022-08-30T20:07:41.131Z,26.97
2022-08-30T20:10:12.614Z,26.97
2022-08-30T20:12:45.476Z,26.95
2022-08-30T20:15:15.310Z,26.91
2022-08-30T20:18:05.397Z,26.86
2022-08-30T20:20:37.108Z,26.76
2022-08-30T20:23:06.027Z,26.62
2022-08-30T20:24:30.322Z,27.94
2022-08-30T20:25:34.615Z,26.56
2022-08-30T20:28:03.117Z,26.48
2022-08-30T20:30:30.883Z,26.43
2022-08-30T20:33:00.725Z,26.38
2022-08-30T20:35:30.204Z,26.31
2022-08-30T20:38:00.633Z,26.26
2022-08-30T20:40:28.058Z,26.23
2022-08-30T20:42:56.931Z,26.21
2022-08-30T20:45:30.966Z,26.16
2022-08-30T20:47:58.644Z,26.13
2022-08-30T20:50:26.961Z,26.06
2022-08-30T20:52:54.414Z,25.99
2022-08-30T20:55:21.790Z,25.92
2022-08-30T20:57:49.197Z,25.87
2022-08-30T21:00:16.885Z,25.84
2022-08-30T21:02:48.516Z,25.79
2022-08-30T21:05:16.799Z,25.76
2022-08-30T21:07:45.944Z,25.73
2022-08-30T21:10:13.507Z,25.71
2022-08-30T21:12:42.992Z,25.66
2022-08-30T21:15:34.067Z,25.57
2022-08-30T21:18:00.271Z,25.54
2022-08-30T21:20:28.427Z,25.47
2022-08-30T21:22:56.187Z,25.37
2022-08-30T21:25:23.814Z,25.32
2022-08-30T21:27:53.130Z,25.27
2022-08-30T21:30:20.543Z,25.23
2022-08-30T21:32:47.945Z,25.22
2022-08-30T21:35:34.194Z,25.20
2022-08-30T21:38:01.590Z,25.23
2022-08-30T21:40:29.327Z,25.22
2022-08-30T21:42:57.114Z,25.22
2022-08-30T21:45:24.573Z,25.30
2022-08-30T21:47:51.919Z,25.47
2022-08-30T21:50:19.391Z,25.62
2022-08-30T21:52:48.846Z,25.74
2022-08-30T21:55:16.243Z,25.79
2022-08-30T21:57:43.486Z,25.78
2022-08-30T22:00:11.572Z,25.75
2022-08-30T22:02:39.863Z,25.75
2022-08-30T22:05:07.548Z,25.77
2022-08-30T22:07:37.425Z,25.83
2022-08-30T22:10:07.109Z,25.87
2022-08-30T22:12:35.365Z,25.92
2022-08-30T22:15:06.207Z,25.97
2022-08-30T22:17:36.391Z,25.98
2022-08-30T22:20:05.707Z,26.00
2022-08-30T22:22:34.171Z,26.03
2022-08-30T22:25:01.710Z,26.04
2022-08-30T22:27:31.386Z,26.10
2022-08-30T22:29:58.976Z,26.19
2022-08-30T22:32:26.463Z,26.18
2022-08-30T22:34:53.739Z,26.17
2022-08-30T22:37:21.163Z,26.15
2022-08-30T22:39:50.868Z,26.16
2022-08-30T22:42:18.353Z,26.15
2022-08-30T22:44:46.989Z,26.13
2022-08-30T22:47:14.321Z,26.09
2022-08-30T22:49:41.593Z,26.03
2022-08-30T22:52:09.272Z,25.96
2022-08-30T22:54:38.904Z,25.91
2022-08-30T22:57:07.092Z,25.90
2022-08-30T22:59:35.856Z,25.88
2022-08-30T23:02:05.964Z,25.81
2022-08-30T23:04:36.851Z,25.76
2022-08-30T23:07:04.425Z,25.70
2022-08-30T23:09:31.921Z,25.66
2022-08-30T23:11:59.425Z,25.59
2022-08-30T23:14:27.133Z,25.55
2022-08-30T23:16:54.822Z,25.50
2022-08-30T23:19:23.749Z,25.45
2022-08-30T23:21:51.241Z,25.41
2022-08-30T23:24:37.605Z,25.35
2022-08-30T23:27:23.629Z,25.29
2022-08-30T23:30:09.495Z,25.20
2022-08-30T23:32:55.550Z,25.18
2022-08-30T23:35:42.158Z,25.11
2022-08-30T23:38:27.916Z,25.03
2022-08-30T23:41:13.867Z,25.00
2022-08-30T23:44:01.021Z,25.02
2022-08-30T23:46:46.957Z,24.99
2022-08-30T23:49:32.744Z,25.00
2022-08-30T23:52:18.465Z,25.00
2022-08-30T23:55:04.791Z,24.97
2022-08-30T23:57:51.208Z,24.96
